sensor_id;sensor_type;location;lat;lon;timestamp;P1;durP1;ratioP1;P2;durP2;ratioP2
58896;SDS011;44677;52.378;10.400;2023-08-07T00:00:51;4.60;;;3.90;;
58896;SDS011;44677;52.378;10.400;2023-08-07T00:03:16;4.60;;;4.10;;
58896;SDS011;44677;52.378;10.400;2023-08-07T00:05:49;4.40;;;3.80;;
58896;SDS011;44677;52.378;10.400;2023-08-07T00:08:17;5.10;;;3.90;;
58896;SDS011;44677;52.378;10.400;2023-08-07T00:10:42;4.80;;;3.80;;
58896;SDS011;44677;52.378;10.400;2023-08-07T00:13:08;7.00;;;4.10;;
58896;SDS011;44677;52.378;10.400;2023-08-07T00:15:33;6.50;;;3.80;;
58896;SDS011;44677;52.378;10.400;2023-08-07T00:17:59;4.60;;;3.70;;
58896;SDS011;44677;52.378;10.400;2023-08-07T00:20:25;4.40;;;3.60;;
58896;SDS011;44677;52.378;10.400;2023-08-07T00:22:50;4.90;;;4.00;;
58896;SDS011;44677;52.378;10.400;2023-08-07T00:25:15;6.40;;;4.00;;
58896;SDS011;44677;52.378;10.400;2023-08-07T00:27:41;4.30;;;3.90;;
58896;SDS011;44677;52.378;10.400;2023-08-07T00:30:06;7.00;;;4.30;;
58896;SDS011;44677;52.378;10.400;2023-08-07T00:32:32;6.80;;;4.10;;
58896;SDS011;44677;52.378;10.400;2023-08-07T00:34:58;6.20;;;4.50;;
58896;SDS011;44677;52.378;10.400;2023-08-07T00:37:24;5.40;;;4.20;;
58896;SDS011;44677;52.378;10.400;2023-08-07T00:39:49;7.10;;;4.30;;
58896;SDS011;44677;52.378;10.400;2023-08-07T00:42:15;5.50;;;3.80;;
58896;SDS011;44677;52.378;10.400;2023-08-07T00:44:40;6.10;;;3.40;;
58896;SDS011;44677;52.378;10.400;2023-08-07T00:47:06;5.50;;;3.80;;
58896;SDS011;44677;52.378;10.400;2023-08-07T00:49:31;5.30;;;3.70;;
58896;SDS011;44677;52.378;10.400;2023-08-07T00:51:57;5.10;;;3.70;;
58896;SDS011;44677;52.378;10.400;2023-08-07T00:54:22;4.60;;;3.00;;
58896;SDS011;44677;52.378;10.400;2023-08-07T00:56:47;3.50;;;3.20;;
58896;SDS011;44677;52.378;10.400;2023-08-07T00:59:13;3.40;;;3.10;;
58896;SDS011;44677;52.378;10.400;2023-08-07T01:01:40;3.20;;;3.00;;
58896;SDS011;44677;52.378;10.400;2023-08-07T01:04:05;3.40;;;3.00;;
58896;SDS011;44677;52.378;10.400;2023-08-07T01:06:31;3.00;;;2.80;;
58896;SDS011;44677;52.378;10.400;2023-08-07T01:08:56;7.90;;;3.90;;
58896;SDS011;44677;52.378;10.400;2023-08-07T01:19:31;5.60;;;3.20;;
58896;SDS011;44677;52.378;10.400;2023-08-07T01:22:03;3.10;;;2.90;;
58896;SDS011;44677;52.378;10.400;2023-08-07T01:24:33;6.60;;;3.10;;
58896;SDS011;44677;52.378;10.400;2023-08-07T01:29:54;4.10;;;3.40;;
58896;SDS011;44677;52.378;10.400;2023-08-07T01:33:12;6.30;;;3.70;;
58896;SDS011;44677;52.378;10.400;2023-08-07T01:35:29;3.80;;;3.20;;
58896;SDS011;44677;52.378;10.400;2023-08-07T01:37:58;5.40;;;3.80;;
58896;SDS011;44677;52.378;10.400;2023-08-07T01:40:25;3.60;;;3.30;;
58896;SDS011;44677;52.378;10.400;2023-08-07T01:42:52;7.00;;;4.20;;
58896;SDS011;44677;52.378;10.400;2023-08-07T01:45:27;4.50;;;3.80;;
58896;SDS011;44677;52.378;10.400;2023-08-07T01:47:53;5.40;;;4.70;;
58896;SDS011;44677;52.378;10.400;2023-08-07T01:50:22;5.30;;;4.40;;
58896;SDS011;44677;52.378;10.400;2023-08-07T01:52:48;4.80;;;4.30;;
58896;SDS011;44677;52.378;10.400;2023-08-07T01:55:15;5.20;;;4.10;;
58896;SDS011;44677;52.378;10.400;2023-08-07T01:57:48;6.90;;;4.90;;
58896;SDS011;44677;52.378;10.400;2023-08-07T02:00:14;5.60;;;4.50;;
58896;SDS011;44677;52.378;10.400;2023-08-07T02:02:42;7.00;;;4.50;;
58896;SDS011;44677;52.378;10.400;2023-08-07T02:05:09;5.20;;;4.20;;
58896;SDS011;44677;52.378;10.400;2023-08-07T02:07:35;6.10;;;4.30;;
58896;SDS011;44677;52.378;10.400;2023-08-07T02:10:00;4.50;;;4.00;;
58896;SDS011;44677;52.378;10.400;2023-08-07T02:12:26;4.80;;;4.00;;
58896;SDS011;44677;52.378;10.400;2023-08-07T02:14:52;4.50;;;4.10;;
58896;SDS011;44677;52.378;10.400;2023-08-07T02:17:20;5.40;;;4.40;;
58896;SDS011;44677;52.378;10.400;2023-08-07T02:19:46;6.10;;;4.00;;
58896;SDS011;44677;52.378;10.400;2023-08-07T02:22:11;5.60;;;4.40;;
58896;SDS011;44677;52.378;10.400;2023-08-07T02:24:36;5.10;;;4.60;;
58896;SDS011;44677;52.378;10.400;2023-08-07T02:27:02;5.90;;;4.80;;
58896;SDS011;44677;52.378;10.400;2023-08-07T02:29:27;5.30;;;4.80;;
58896;SDS011;44677;52.378;10.400;2023-08-07T02:31:55;7.10;;;4.90;;
58896;SDS011;44677;52.378;10.400;2023-08-07T02:34:21;5.60;;;4.60;;
58896;SDS011;44677;52.378;10.400;2023-08-07T02:36:46;5.60;;;4.90;;
58896;SDS011;44677;52.378;10.400;2023-08-07T02:39:13;6.20;;;5.60;;
58896;SDS011;44677;52.378;10.400;2023-08-07T02:41:38;7.40;;;5.80;;
58896;SDS011;44677;52.378;10.400;2023-08-07T02:44:04;8.10;;;6.00;;
58896;SDS011;44677;52.378;10.400;2023-08-07T02:46:29;6.80;;;6.20;;
58896;SDS011;44677;52.378;10.400;2023-08-07T02:48:54;8.40;;;6.80;;
58896;SDS011;44677;52.378;10.400;2023-08-07T02:51:20;8.40;;;6.10;;
58896;SDS011;44677;52.378;10.400;2023-08-07T02:53:45;9.20;;;6.70;;
58896;SDS011;44677;52.378;10.400;2023-08-07T02:56:10;6.50;;;5.90;;
58896;SDS011;44677;52.378;10.400;2023-08-07T02:58:36;9.50;;;7.30;;
58896;SDS011;44677;52.378;10.400;2023-08-07T03:01:04;7.80;;;6.60;;
58896;SDS011;44677;52.378;10.400;2023-08-07T03:03:31;7.20;;;6.00;;
58896;SDS011;44677;52.378;10.400;2023-08-07T03:05:57;8.10;;;6.60;;
58896;SDS011;44677;52.378;10.400;2023-08-07T03:08:22;7.20;;;6.50;;
58896;SDS011;44677;52.378;10.400;2023-08-07T03:10:55;8.10;;;6.60;;
58896;SDS011;44677;52.378;10.400;2023-08-07T03:13:23;8.20;;;7.30;;
58896;SDS011;44677;52.378;10.400;2023-08-07T03:15:58;8.30;;;7.10;;
58896;SDS011;44677;52.378;10.400;2023-08-07T03:18:27;11.30;;;7.80;;
58896;SDS011;44677;52.378;10.400;2023-08-07T03:20:57;8.90;;;7.70;;
58896;SDS011;44677;52.378;10.400;2023-08-07T03:23:23;7.80;;;6.80;;
58896;SDS011;44677;52.378;10.400;2023-08-07T03:25:49;8.50;;;7.70;;
58896;SDS011;44677;52.378;10.400;2023-08-07T03:28:16;10.10;;;7.90;;
58896;SDS011;44677;52.378;10.400;2023-08-07T03:30:42;8.70;;;7.00;;
58896;SDS011;44677;52.378;10.400;2023-08-07T03:33:07;9.70;;;6.80;;
58896;SDS011;44677;52.378;10.400;2023-08-07T03:35:33;7.70;;;6.50;;
58896;SDS011;44677;52.378;10.400;2023-08-07T03:37:59;7.50;;;6.70;;
58896;SDS011;44677;52.378;10.400;2023-08-07T03:40:25;10.70;;;6.50;;
58896;SDS011;44677;52.378;10.400;2023-08-07T03:42:50;7.90;;;6.50;;
58896;SDS011;44677;52.378;10.400;2023-08-07T03:45:16;7.50;;;6.80;;
58896;SDS011;44677;52.378;10.400;2023-08-07T03:47:41;7.70;;;6.90;;
58896;SDS011;44677;52.378;10.400;2023-08-07T03:50:06;8.60;;;6.30;;
58896;SDS011;44677;52.378;10.400;2023-08-07T03:52:33;7.40;;;6.30;;
58896;SDS011;44677;52.378;10.400;2023-08-07T03:54:59;8.90;;;7.00;;
58896;SDS011;44677;52.378;10.400;2023-08-07T03:57:24;8.30;;;6.30;;
58896;SDS011;44677;52.378;10.400;2023-08-07T03:59:50;7.80;;;6.00;;
58896;SDS011;44677;52.378;10.400;2023-08-07T04:02:15;8.00;;;5.90;;
58896;SDS011;44677;52.378;10.400;2023-08-07T04:04:41;7.00;;;5.70;;
58896;SDS011;44677;52.378;10.400;2023-08-07T04:07:06;9.50;;;5.90;;
58896;SDS011;44677;52.378;10.400;2023-08-07T04:09:33;10.00;;;6.10;;
58896;SDS011;44677;52.378;10.400;2023-08-07T04:11:58;6.90;;;5.60;;
58896;SDS011;44677;52.378;10.400;2023-08-07T04:14:24;6.90;;;5.40;;
58896;SDS011;44677;52.378;10.400;2023-08-07T04:16:49;8.60;;;5.80;;
58896;SDS011;44677;52.378;10.400;2023-08-07T04:19:15;6.90;;;5.20;;
58896;SDS011;44677;52.378;10.400;2023-08-07T04:21:40;10.80;;;5.70;;
58896;SDS011;44677;52.378;10.400;2023-08-07T04:24:08;7.80;;;5.00;;
58896;SDS011;44677;52.378;10.400;2023-08-07T04:26:35;8.70;;;4.80;;
58896;SDS011;44677;52.378;10.400;2023-08-07T04:29:02;8.00;;;5.50;;
58896;SDS011;44677;52.378;10.400;2023-08-07T04:31:28;7.90;;;5.70;;
58896;SDS011;44677;52.378;10.400;2023-08-07T04:33:56;6.90;;;5.50;;
58896;SDS011;44677;52.378;10.400;2023-08-07T04:36:22;7.10;;;5.60;;
58896;SDS011;44677;52.378;10.400;2023-08-07T04:38:48;7.60;;;5.30;;
58896;SDS011;44677;52.378;10.400;2023-08-07T04:41:14;9.00;;;5.10;;
58896;SDS011;44677;52.378;10.400;2023-08-07T04:43:39;8.50;;;5.40;;
58896;SDS011;44677;52.378;10.400;2023-08-07T04:46:05;6.90;;;4.90;;
58896;SDS011;44677;52.378;10.400;2023-08-07T04:48:30;7.10;;;5.50;;
58896;SDS011;44677;52.378;10.400;2023-08-07T04:50:56;11.60;;;6.00;;
58896;SDS011;44677;52.378;10.400;2023-08-07T04:55:48;7.00;;;5.00;;
58896;SDS011;44677;52.378;10.400;2023-08-07T04:58:13;8.70;;;4.90;;
58896;SDS011;44677;52.378;10.400;2023-08-07T05:00:39;6.90;;;5.30;;
58896;SDS011;44677;52.378;10.400;2023-08-07T05:03:04;8.00;;;5.40;;
58896;SDS011;44677;52.378;10.400;2023-08-07T05:05:30;7.00;;;5.30;;
58896;SDS011;44677;52.378;10.400;2023-08-07T05:07:57;7.50;;;4.80;;
58896;SDS011;44677;52.378;10.400;2023-08-07T05:10:23;9.00;;;5.40;;
58896;SDS011;44677;52.378;10.400;2023-08-07T05:12:48;6.10;;;5.10;;
58896;SDS011;44677;52.378;10.400;2023-08-07T05:15:20;7.80;;;4.80;;
58896;SDS011;44677;52.378;10.400;2023-08-07T05:20:12;4.90;;;4.40;;
58896;SDS011;44677;52.378;10.400;2023-08-07T05:22:37;7.50;;;5.90;;
58896;SDS011;44677;52.378;10.400;2023-08-07T05:25:03;6.70;;;5.10;;
58896;SDS011;44677;52.378;10.400;2023-08-07T05:27:29;5.60;;;4.70;;
58896;SDS011;44677;52.378;10.400;2023-08-07T05:29:54;8.10;;;5.10;;
58896;SDS011;44677;52.378;10.400;2023-08-07T05:32:20;6.10;;;4.10;;
58896;SDS011;44677;52.378;10.400;2023-08-07T05:34:45;5.60;;;4.80;;
58896;SDS011;44677;52.378;10.400;2023-08-07T05:37:10;6.70;;;5.10;;
58896;SDS011;44677;52.378;10.400;2023-08-07T05:39:36;7.50;;;5.60;;
58896;SDS011;44677;52.378;10.400;2023-08-07T05:42:01;10.60;;;6.20;;
58896;SDS011;44677;52.378;10.400;2023-08-07T05:44:27;9.00;;;5.60;;
58896;SDS011;44677;52.378;10.400;2023-08-07T05:46:53;6.60;;;5.10;;
58896;SDS011;44677;52.378;10.400;2023-08-07T05:49:18;8.40;;;5.70;;
58896;SDS011;44677;52.378;10.400;2023-08-07T05:51:45;7.00;;;4.90;;
58896;SDS011;44677;52.378;10.400;2023-08-07T05:54:10;7.70;;;4.80;;
58896;SDS011;44677;52.378;10.400;2023-08-07T05:56:36;7.50;;;5.60;;
58896;SDS011;44677;52.378;10.400;2023-08-07T05:59:02;6.10;;;4.70;;
58896;SDS011;44677;52.378;10.400;2023-08-07T06:01:28;6.70;;;5.00;;
58896;SDS011;44677;52.378;10.400;2023-08-07T06:03:59;7.30;;;5.20;;
58896;SDS011;44677;52.378;10.400;2023-08-07T06:06:25;7.90;;;5.20;;
58896;SDS011;44677;52.378;10.400;2023-08-07T06:08:53;6.50;;;5.30;;
58896;SDS011;44677;52.378;10.400;2023-08-07T06:11:21;7.30;;;5.70;;
58896;SDS011;44677;52.378;10.400;2023-08-07T06:13:46;6.70;;;3.90;;
58896;SDS011;44677;52.378;10.400;2023-08-07T06:16:12;2.80;;;2.30;;
58896;SDS011;44677;52.378;10.400;2023-08-07T06:18:37;3.00;;;2.10;;
58896;SDS011;44677;52.378;10.400;2023-08-07T06:21:22;1.80;;;1.60;;
58896;SDS011;44677;52.378;10.400;2023-08-07T06:23:55;3.30;;;1.90;;
58896;SDS011;44677;52.378;10.400;2023-08-07T06:26:21;1.50;;;1.40;;
58896;SDS011;44677;52.378;10.400;2023-08-07T06:28:51;1.80;;;1.60;;
58896;SDS011;44677;52.378;10.400;2023-08-07T06:31:17;3.40;;;1.50;;
58896;SDS011;44677;52.378;10.400;2023-08-07T06:33:45;1.00;;;1.00;;
58896;SDS011;44677;52.378;10.400;2023-08-07T06:36:14;1.60;;;1.20;;
58896;SDS011;44677;52.378;10.400;2023-08-07T06:38:39;2.70;;;1.80;;
58896;SDS011;44677;52.378;10.400;2023-08-07T06:41:07;6.60;;;1.20;;
58896;SDS011;44677;52.378;10.400;2023-08-07T06:43:33;1.10;;;1.10;;
58896;SDS011;44677;52.378;10.400;2023-08-07T06:45:58;2.50;;;1.40;;
58896;SDS011;44677;52.378;10.400;2023-08-07T06:48:27;2.70;;;1.40;;
58896;SDS011;44677;52.378;10.400;2023-08-07T06:50:55;1.60;;;1.00;;
58896;SDS011;44677;52.378;10.400;2023-08-07T06:53:23;2.10;;;1.20;;
58896;SDS011;44677;52.378;10.400;2023-08-07T06:55:51;3.50;;;1.70;;
58896;SDS011;44677;52.378;10.400;2023-08-07T06:58:17;2.20;;;1.80;;
58896;SDS011;44677;52.378;10.400;2023-08-07T07:00:43;3.70;;;2.10;;
58896;SDS011;44677;52.378;10.400;2023-08-07T07:03:12;2.70;;;2.30;;
58896;SDS011;44677;52.378;10.400;2023-08-07T07:05:37;5.60;;;3.00;;
58896;SDS011;44677;52.378;10.400;2023-08-07T07:08:03;5.80;;;3.20;;
58896;SDS011;44677;52.378;10.400;2023-08-07T07:10:31;4.40;;;4.00;;
58896;SDS011;44677;52.378;10.400;2023-08-07T07:12:59;6.10;;;3.80;;
58896;SDS011;44677;52.378;10.400;2023-08-07T07:15:27;4.10;;;3.60;;
58896;SDS011;44677;52.378;10.400;2023-08-07T07:17:53;5.10;;;3.80;;
58896;SDS011;44677;52.378;10.400;2023-08-07T07:20:22;3.80;;;3.30;;
58896;SDS011;44677;52.378;10.400;2023-08-07T07:22:47;4.10;;;3.60;;
58896;SDS011;44677;52.378;10.400;2023-08-07T07:25:13;5.30;;;3.60;;
58896;SDS011;44677;52.378;10.400;2023-08-07T07:27:41;3.70;;;3.00;;
58896;SDS011;44677;52.378;10.400;2023-08-07T07:30:06;4.30;;;3.10;;
58896;SDS011;44677;52.378;10.400;2023-08-07T07:32:41;4.70;;;3.20;;
58896;SDS011;44677;52.378;10.400;2023-08-07T07:35:09;4.20;;;2.90;;
58896;SDS011;44677;52.378;10.400;2023-08-07T07:37:43;2.90;;;2.70;;
58896;SDS011;44677;52.378;10.400;2023-08-07T07:40:15;3.70;;;2.80;;
58896;SDS011;44677;52.378;10.400;2023-08-07T07:42:41;4.30;;;3.50;;
58896;SDS011;44677;52.378;10.400;2023-08-07T07:45:12;3.60;;;2.60;;
58896;SDS011;44677;52.378;10.400;2023-08-07T07:47:39;4.80;;;3.00;;
58896;SDS011;44677;52.378;10.400;2023-08-07T07:50:06;5.50;;;3.10;;
58896;SDS011;44677;52.378;10.400;2023-08-07T07:52:47;2.90;;;2.70;;
58896;SDS011;44677;52.378;10.400;2023-08-07T07:55:13;3.20;;;2.60;;
58896;SDS011;44677;52.378;10.400;2023-08-07T07:57:42;5.20;;;2.90;;
58896;SDS011;44677;52.378;10.400;2023-08-07T08:00:08;3.00;;;2.70;;
58896;SDS011;44677;52.378;10.400;2023-08-07T08:02:37;2.50;;;2.30;;
58896;SDS011;44677;52.378;10.400;2023-08-07T08:05:02;2.40;;;2.20;;
58896;SDS011;44677;52.378;10.400;2023-08-07T08:07:28;3.80;;;2.40;;
58896;SDS011;44677;52.378;10.400;2023-08-07T08:09:53;3.00;;;2.00;;
58896;SDS011;44677;52.378;10.400;2023-08-07T08:12:18;5.00;;;2.20;;
58896;SDS011;44677;52.378;10.400;2023-08-07T08:14:44;2.90;;;2.00;;
58896;SDS011;44677;52.378;10.400;2023-08-07T08:17:09;4.60;;;2.40;;
58896;SDS011;44677;52.378;10.400;2023-08-07T08:19:35;4.00;;;2.30;;
58896;SDS011;44677;52.378;10.400;2023-08-07T08:22:00;3.10;;;2.10;;
58896;SDS011;44677;52.378;10.400;2023-08-07T08:24:26;4.30;;;2.30;;
58896;SDS011;44677;52.378;10.400;2023-08-07T08:26:51;7.00;;;2.10;;
58896;SDS011;44677;52.378;10.400;2023-08-07T08:29:17;2.20;;;2.10;;
58896;SDS011;44677;52.378;10.400;2023-08-07T08:31:42;2.60;;;1.90;;
58896;SDS011;44677;52.378;10.400;2023-08-07T08:34:07;4.60;;;2.20;;
58896;SDS011;44677;52.378;10.400;2023-08-07T08:36:33;3.70;;;2.10;;
58896;SDS011;44677;52.378;10.400;2023-08-07T08:38:58;5.50;;;2.20;;
58896;SDS011;44677;52.378;10.400;2023-08-07T08:41:24;2.00;;;1.90;;
58896;SDS011;44677;52.378;10.400;2023-08-07T08:43:51;2.60;;;1.80;;
58896;SDS011;44677;52.378;10.400;2023-08-07T08:46:19;2.20;;;1.70;;
58896;SDS011;44677;52.378;10.400;2023-08-07T08:48:47;3.30;;;2.30;;
58896;SDS011;44677;52.378;10.400;2023-08-07T08:51:15;3.70;;;2.30;;
58896;SDS011;44677;52.378;10.400;2023-08-07T08:53:43;5.60;;;2.20;;
58896;SDS011;44677;52.378;10.400;2023-08-07T08:56:10;4.10;;;2.00;;
58896;SDS011;44677;52.378;10.400;2023-08-07T08:58:36;3.30;;;2.50;;
58896;SDS011;44677;52.378;10.400;2023-08-07T09:01:03;4.60;;;2.20;;
58896;SDS011;44677;52.378;10.400;2023-08-07T09:05:57;3.20;;;2.20;;
58896;SDS011;44677;52.378;10.400;2023-08-07T09:08:24;2.90;;;2.10;;
58896;SDS011;44677;52.378;10.400;2023-08-07T09:10:51;7.00;;;2.40;;
58896;SDS011;44677;52.378;10.400;2023-08-07T09:13:16;4.00;;;2.20;;
58896;SDS011;44677;52.378;10.400;2023-08-07T09:15:46;5.90;;;2.10;;
58896;SDS011;44677;52.378;10.400;2023-08-07T09:18:15;5.70;;;2.10;;
58896;SDS011;44677;52.378;10.400;2023-08-07T09:20:42;4.40;;;2.00;;
58896;SDS011;44677;52.378;10.400;2023-08-07T09:23:08;2.80;;;2.00;;
58896;SDS011;44677;52.378;10.400;2023-08-07T09:25:34;5.40;;;2.50;;
58896;SDS011;44677;52.378;10.400;2023-08-07T09:28:04;6.30;;;2.00;;
58896;SDS011;44677;52.378;10.400;2023-08-07T09:30:30;3.70;;;2.30;;
58896;SDS011;44677;52.378;10.400;2023-08-07T09:32:57;3.50;;;2.20;;
58896;SDS011;44677;52.378;10.400;2023-08-07T09:37:49;2.10;;;1.60;;
58896;SDS011;44677;52.378;10.400;2023-08-07T09:40:15;2.80;;;1.80;;
58896;SDS011;44677;52.378;10.400;2023-08-07T09:42:41;4.50;;;2.00;;
58896;SDS011;44677;52.378;10.400;2023-08-07T09:45:18;5.60;;;1.90;;
58896;SDS011;44677;52.378;10.400;2023-08-07T09:47:56;4.10;;;1.70;;
58896;SDS011;44677;52.378;10.400;2023-08-07T09:50:22;4.90;;;2.00;;
58896;SDS011;44677;52.378;10.400;2023-08-07T09:52:48;4.60;;;2.20;;
58896;SDS011;44677;52.378;10.400;2023-08-07T09:55:14;8.40;;;2.20;;
58896;SDS011;44677;52.378;10.400;2023-08-07T10:00:09;6.70;;;2.30;;
58896;SDS011;44677;52.378;10.400;2023-08-07T10:02:44;9.10;;;2.50;;
58896;SDS011;44677;52.378;10.400;2023-08-07T10:05:10;9.00;;;2.40;;
58896;SDS011;44677;52.378;10.400;2023-08-07T10:07:37;6.80;;;3.00;;
58896;SDS011;44677;52.378;10.400;2023-08-07T10:10:03;11.40;;;2.80;;
58896;SDS011;44677;52.378;10.400;2023-08-07T10:12:29;8.40;;;2.60;;
58896;SDS011;44677;52.378;10.400;2023-08-07T10:14:55;6.80;;;2.50;;
58896;SDS011;44677;52.378;10.400;2023-08-07T10:17:23;5.10;;;2.50;;
58896;SDS011;44677;52.378;10.400;2023-08-07T10:19:48;9.40;;;2.90;;
58896;SDS011;44677;52.378;10.400;2023-08-07T10:22:16;6.40;;;2.20;;
58896;SDS011;44677;52.378;10.400;2023-08-07T10:24:42;4.30;;;2.40;;
58896;SDS011;44677;52.378;10.400;2023-08-07T10:27:12;12.70;;;3.50;;
58896;SDS011;44677;52.378;10.400;2023-08-07T10:29:42;4.30;;;2.20;;
58896;SDS011;44677;52.378;10.400;2023-08-07T10:32:09;5.40;;;2.00;;
58896;SDS011;44677;52.378;10.400;2023-08-07T10:34:35;5.30;;;2.50;;
58896;SDS011;44677;52.378;10.400;2023-08-07T10:37:02;9.20;;;2.50;;
58896;SDS011;44677;52.378;10.400;2023-08-07T10:39:31;4.70;;;2.20;;
58896;SDS011;44677;52.378;10.400;2023-08-07T10:41:57;5.40;;;2.00;;
58896;SDS011;44677;52.378;10.400;2023-08-07T10:44:23;6.60;;;2.10;;
58896;SDS011;44677;52.378;10.400;2023-08-07T10:46:53;9.00;;;2.40;;
58896;SDS011;44677;52.378;10.400;2023-08-07T10:49:29;5.20;;;2.10;;
58896;SDS011;44677;52.378;10.400;2023-08-07T10:51:57;5.70;;;2.10;;
58896;SDS011;44677;52.378;10.400;2023-08-07T10:54:24;4.80;;;2.20;;
58896;SDS011;44677;52.378;10.400;2023-08-07T10:56:53;8.00;;;2.50;;
58896;SDS011;44677;52.378;10.400;2023-08-07T10:59:19;5.00;;;2.10;;
58896;SDS011;44677;52.378;10.400;2023-08-07T11:01:48;3.00;;;1.50;;
58896;SDS011;44677;52.378;10.400;2023-08-07T11:04:16;4.80;;;1.90;;
58896;SDS011;44677;52.378;10.400;2023-08-07T11:06:43;5.70;;;2.20;;
58896;SDS011;44677;52.378;10.400;2023-08-07T11:09:09;6.30;;;2.20;;
58896;SDS011;44677;52.378;10.400;2023-08-07T11:11:38;4.80;;;1.90;;
58896;SDS011;44677;52.378;10.400;2023-08-07T11:14:07;6.00;;;2.20;;
58896;SDS011;44677;52.378;10.400;2023-08-07T11:19:01;4.40;;;1.80;;
58896;SDS011;44677;52.378;10.400;2023-08-07T11:21:28;3.60;;;2.00;;
58896;SDS011;44677;52.378;10.400;2023-08-07T11:23:54;4.70;;;2.20;;
58896;SDS011;44677;52.378;10.400;2023-08-07T11:26:19;5.20;;;2.00;;
58896;SDS011;44677;52.378;10.400;2023-08-07T11:28:49;4.80;;;1.70;;
58896;SDS011;44677;52.378;10.400;2023-08-07T11:31:15;6.70;;;2.10;;
58896;SDS011;44677;52.378;10.400;2023-08-07T11:33:42;5.80;;;2.00;;
58896;SDS011;44677;52.378;10.400;2023-08-07T11:36:11;9.50;;;2.30;;
58896;SDS011;44677;52.378;10.400;2023-08-07T11:38:39;6.10;;;2.10;;
58896;SDS011;44677;52.378;10.400;2023-08-07T11:41:06;5.80;;;2.10;;
58896;SDS011;44677;52.378;10.400;2023-08-07T11:45:59;6.50;;;1.70;;
58896;SDS011;44677;52.378;10.400;2023-08-07T11:48:27;2.80;;;2.00;;
58896;SDS011;44677;52.378;10.400;2023-08-07T11:50:53;5.40;;;2.10;;
58896;SDS011;44677;52.378;10.400;2023-08-07T11:53:20;5.30;;;2.20;;
58896;SDS011;44677;52.378;10.400;2023-08-07T11:55:47;6.90;;;2.70;;
58896;SDS011;44677;52.378;10.400;2023-08-07T11:58:17;5.90;;;1.60;;
58896;SDS011;44677;52.378;10.400;2023-08-07T12:00:46;7.20;;;2.60;;
58896;SDS011;44677;52.378;10.400;2023-08-07T12:06:09;4.90;;;2.00;;
58896;SDS011;44677;52.378;10.400;2023-08-07T12:08:48;9.10;;;2.00;;
58896;SDS011;44677;52.378;10.400;2023-08-07T12:11:14;8.50;;;2.10;;
58896;SDS011;44677;52.378;10.400;2023-08-07T12:13:43;4.50;;;2.00;;
58896;SDS011;44677;52.378;10.400;2023-08-07T12:16:10;7.40;;;2.50;;
58896;SDS011;44677;52.378;10.400;2023-08-07T12:18:42;7.50;;;3.10;;
58896;SDS011;44677;52.378;10.400;2023-08-07T12:21:13;3.80;;;2.00;;
58896;SDS011;44677;52.378;10.400;2023-08-07T12:23:39;3.60;;;2.00;;
58896;SDS011;44677;52.378;10.400;2023-08-07T12:26:05;6.10;;;2.70;;
58896;SDS011;44677;52.378;10.400;2023-08-07T12:28:34;6.60;;;2.50;;
58896;SDS011;44677;52.378;10.400;2023-08-07T12:31:00;4.70;;;2.20;;
58896;SDS011;44677;52.378;10.400;2023-08-07T12:33:28;5.90;;;1.80;;
58896;SDS011;44677;52.378;10.400;2023-08-07T12:35:54;5.40;;;2.00;;
58896;SDS011;44677;52.378;10.400;2023-08-07T12:38:19;3.50;;;1.90;;
58896;SDS011;44677;52.378;10.400;2023-08-07T12:40:45;10.90;;;2.30;;
58896;SDS011;44677;52.378;10.400;2023-08-07T12:43:10;4.70;;;1.80;;
58896;SDS011;44677;52.378;10.400;2023-08-07T12:45:36;3.10;;;1.50;;
58896;SDS011;44677;52.378;10.400;2023-08-07T12:48:02;1.20;;;1.10;;
58896;SDS011;44677;52.378;10.400;2023-08-07T12:50:28;1.50;;;0.80;;
58896;SDS011;44677;52.378;10.400;2023-08-07T12:52:54;1.50;;;0.90;;
58896;SDS011;44677;52.378;10.400;2023-08-07T12:55:19;1.30;;;0.90;;
58896;SDS011;44677;52.378;10.400;2023-08-07T12:57:45;2.10;;;1.00;;
58896;SDS011;44677;52.378;10.400;2023-08-07T13:00:11;1.70;;;1.00;;
58896;SDS011;44677;52.378;10.400;2023-08-07T13:02:42;2.10;;;0.90;;
58896;SDS011;44677;52.378;10.400;2023-08-07T13:05:09;5.50;;;1.40;;
58896;SDS011;44677;52.378;10.400;2023-08-07T13:07:36;3.70;;;1.30;;
58896;SDS011;44677;52.378;10.400;2023-08-07T13:10:02;3.50;;;1.60;;
58896;SDS011;44677;52.378;10.400;2023-08-07T13:12:29;2.30;;;1.00;;
58896;SDS011;44677;52.378;10.400;2023-08-07T13:14:54;4.00;;;1.50;;
58896;SDS011;44677;52.378;10.400;2023-08-07T13:17:19;1.40;;;1.20;;
58896;SDS011;44677;52.378;10.400;2023-08-07T13:19:45;3.60;;;1.60;;
58896;SDS011;44677;52.378;10.400;2023-08-07T13:22:10;5.70;;;1.60;;
58896;SDS011;44677;52.378;10.400;2023-08-07T13:24:36;4.70;;;1.40;;
58896;SDS011;44677;52.378;10.400;2023-08-07T13:27:01;4.90;;;1.50;;
58896;SDS011;44677;52.378;10.400;2023-08-07T13:29:28;6.10;;;1.80;;
58896;SDS011;44677;52.378;10.400;2023-08-07T13:31:55;3.30;;;1.80;;
58896;SDS011;44677;52.378;10.400;2023-08-07T13:34:20;2.70;;;1.30;;
58896;SDS011;44677;52.378;10.400;2023-08-07T13:36:47;4.20;;;1.70;;
58896;SDS011;44677;52.378;10.400;2023-08-07T13:39:12;6.40;;;1.70;;
58896;SDS011;44677;52.378;10.400;2023-08-07T13:41:38;6.20;;;2.00;;
58896;SDS011;44677;52.378;10.400;2023-08-07T13:44:04;3.10;;;1.70;;
58896;SDS011;44677;52.378;10.400;2023-08-07T13:46:29;4.90;;;1.70;;
58896;SDS011;44677;52.378;10.400;2023-08-07T13:48:55;6.50;;;1.80;;
58896;SDS011;44677;52.378;10.400;2023-08-07T13:51:20;3.40;;;2.00;;
58896;SDS011;44677;52.378;10.400;2023-08-07T13:53:46;5.80;;;1.80;;
58896;SDS011;44677;52.378;10.400;2023-08-07T13:56:12;3.10;;;1.60;;
58896;SDS011;44677;52.378;10.400;2023-08-07T13:58:40;4.50;;;1.80;;
58896;SDS011;44677;52.378;10.400;2023-08-07T14:01:05;8.10;;;2.20;;
58896;SDS011;44677;52.378;10.400;2023-08-07T14:03:31;4.60;;;2.10;;
58896;SDS011;44677;52.378;10.400;2023-08-07T14:05:57;5.70;;;2.00;;
58896;SDS011;44677;52.378;10.400;2023-08-07T14:08:22;4.50;;;1.60;;
58896;SDS011;44677;52.378;10.400;2023-08-07T14:10:48;5.00;;;2.00;;
58896;SDS011;44677;52.378;10.400;2023-08-07T14:13:13;5.90;;;1.90;;
58896;SDS011;44677;52.378;10.400;2023-08-07T14:15:39;5.40;;;2.20;;
58896;SDS011;44677;52.378;10.400;2023-08-07T14:18:05;6.60;;;2.10;;
58896;SDS011;44677;52.378;10.400;2023-08-07T14:20:30;3.90;;;1.60;;
58896;SDS011;44677;52.378;10.400;2023-08-07T14:22:55;4.60;;;2.00;;
58896;SDS011;44677;52.378;10.400;2023-08-07T14:25:21;8.40;;;2.20;;
58896;SDS011;44677;52.378;10.400;2023-08-07T14:27:47;4.20;;;2.00;;
58896;SDS011;44677;52.378;10.400;2023-08-07T14:30:13;4.80;;;1.70;;
58896;SDS011;44677;52.378;10.400;2023-08-07T14:32:38;8.70;;;2.70;;
58896;SDS011;44677;52.378;10.400;2023-08-07T14:35:04;5.70;;;2.00;;
58896;SDS011;44677;52.378;10.400;2023-08-07T14:37:30;3.80;;;1.90;;
58896;SDS011;44677;52.378;10.400;2023-08-07T14:39:55;7.60;;;2.20;;
58896;SDS011;44677;52.378;10.400;2023-08-07T14:42:20;6.50;;;2.10;;
58896;SDS011;44677;52.378;10.400;2023-08-07T14:44:46;5.50;;;2.00;;
58896;SDS011;44677;52.378;10.400;2023-08-07T14:47:11;2.60;;;1.70;;
58896;SDS011;44677;52.378;10.400;2023-08-07T14:49:37;7.40;;;2.10;;
58896;SDS011;44677;52.378;10.400;2023-08-07T14:52:02;5.50;;;2.10;;
58896;SDS011;44677;52.378;10.400;2023-08-07T14:54:28;5.70;;;2.00;;
58896;SDS011;44677;52.378;10.400;2023-08-07T14:56:53;5.90;;;2.00;;
58896;SDS011;44677;52.378;10.400;2023-08-07T14:59:19;5.20;;;1.50;;
58896;SDS011;44677;52.378;10.400;2023-08-07T15:01:44;5.00;;;1.90;;